sensor_id;sensor_type;location;lat;lon;timestamp;pressure;altitude;pressure_sealevel;temperature;humidity
70544;BME280;58097;48.364;-1.224;2023-02-01T00:02:23;101061.69;;;8.00;88.59
70544;BME280;58097;48.364;-1.224;2023-02-01T00:04:48;101061.81;;;7.98;88.51
70544;BME280;58097;48.364;-1.224;2023-02-01T00:07:13;101059.06;;;7.98;88.60
70544;BME280;58097;48.364;-1.224;2023-02-01T00:09:39;101049.94;;;7.98;88.53
70544;BME280;58097;48.364;-1.224;2023-02-01T00:12:04;101059.06;;;7.98;88.53
70544;BME280;58097;48.364;-1.224;2023-02-01T00:14:30;101056.31;;;7.98;88.49
70544;BME280;58097;48.364;-1.224;2023-02-01T00:16:55;101059.94;;;7.99;88.37
70544;BME280;58097;48.364;-1.224;2023-02-01T00:19:20;101063.56;;;7.99;88.32
70544;BME280;58097;48.364;-1.224;2023-02-01T00:21:46;101058.19;;;7.98;88.29
70544;BME280;58097;48.364;-1.224;2023-02-01T00:24:12;101054.44;;;7.99;88.17
70544;BME280;58097;48.364;-1.224;2023-02-01T00:26:43;101044.41;;;7.98;88.14
70544;BME280;58097;48.364;-1.224;2023-02-01T00:29:15;101048.16;;;7.97;88.06
70544;BME280;58097;48.364;-1.224;2023-02-01T00:31:41;101045.53;;;7.95;88.09
70544;BME280;58097;48.364;-1.224;2023-02-01T00:34:06;101042.03;;;7.93;87.98
70544;BME280;58097;48.364;-1.224;2023-02-01T00:36:34;101034.63;;;7.94;87.79
70544;BME280;58097;48.364;-1.224;2023-02-01T00:38:59;101038.38;;;7.93;87.73
70544;BME280;58097;48.364;-1.224;2023-02-01T00:41:25;101033.88;;;7.92;87.69
70544;BME280;58097;48.364;-1.224;2023-02-01T00:43:50;101040.50;;;7.89;87.69
70544;BME280;58097;48.364;-1.224;2023-02-01T00:46:17;101035.13;;;7.88;87.73
70544;BME280;58097;48.364;-1.224;2023-02-01T00:48:43;101039.63;;;7.89;87.67
70544;BME280;58097;48.364;-1.224;2023-02-01T00:51:20;101032.38;;;7.88;87.36
70544;BME280;58097;48.364;-1.224;2023-02-01T00:53:46;101032.47;;;7.86;87.52
70544;BME280;58097;48.364;-1.224;2023-02-01T00:56:12;101037.22;;;7.84;87.59
70544;BME280;58097;48.364;-1.224;2023-02-01T00:58:38;101038.09;;;7.85;87.43
70544;BME280;58097;48.364;-1.224;2023-02-01T01:03:30;101030.97;;;7.82;87.19
70544;BME280;58097;48.364;-1.224;2023-02-01T01:06:00;101027.34;;;7.82;87.18
70544;BME280;58097;48.364;-1.224;2023-02-01T01:08:26;101032.03;;;7.80;87.04
70544;BME280;58097;48.364;-1.224;2023-02-01T01:10:51;101037.03;;;7.74;86.32
70544;BME280;58097;48.364;-1.224;2023-02-01T01:13:17;101039.00;;;7.72;86.64
70544;BME280;58097;48.364;-1.224;2023-02-01T01:15:42;101039.13;;;7.71;86.60
70544;BME280;58097;48.364;-1.224;2023-02-01T01:18:08;101037.38;;;7.70;86.31
70544;BME280;58097;48.364;-1.224;2023-02-01T01:20:35;101040.38;;;7.67;86.45
70544;BME280;58097;48.364;-1.224;2023-02-01T01:23:01;101044.09;;;7.66;86.35
70544;BME280;58097;48.364;-1.224;2023-02-01T01:25:26;101036.19;;;7.61;85.96
70544;BME280;58097;48.364;-1.224;2023-02-01T01:27:51;101047.44;;;7.58;86.09
70544;BME280;58097;48.364;-1.224;2023-02-01T01:30:17;101046.69;;;7.56;86.03
70544;BME280;58097;48.364;-1.224;2023-02-01T01:32:43;101037.53;;;7.56;85.96
70544;BME280;58097;48.364;-1.224;2023-02-01T01:35:08;101035.78;;;7.55;86.14
70544;BME280;58097;48.364;-1.224;2023-02-01T01:37:33;101033.16;;;7.53;85.97
70544;BME280;58097;48.364;-1.224;2023-02-01T01:40:00;101040.63;;;7.51;85.83
70544;BME280;58097;48.364;-1.224;2023-02-01T01:42:26;101034.16;;;7.52;85.46
70544;BME280;58097;48.364;-1.224;2023-02-01T01:47:23;101042.72;;;7.47;84.81
70544;BME280;58097;48.364;-1.224;2023-02-01T01:49:50;101047.09;;;7.50;85.29
70544;BME280;58097;48.364;-1.224;2023-02-01T01:52:15;101037.78;;;7.53;85.43
70544;BME280;58097;48.364;-1.224;2023-02-01T01:54:43;101033.25;;;7.52;85.51
70544;BME280;58097;48.364;-1.224;2023-02-01T01:57:34;101045.03;;;7.54;84.95
70544;BME280;58097;48.364;-1.224;2023-02-01T02:00:21;101051.63;;;7.51;84.89
70544;BME280;58097;48.364;-1.224;2023-02-01T02:02:49;101047.00;;;7.52;85.14
70544;BME280;58097;48.364;-1.224;2023-02-01T02:05:18;101047.97;;;7.51;85.05
70544;BME280;58097;48.364;-1.224;2023-02-01T02:07:46;101045.16;;;7.52;85.19
70544;BME280;58097;48.364;-1.224;2023-02-01T02:10:15;101043.28;;;7.53;85.24
70544;BME280;58097;48.364;-1.224;2023-02-01T02:12:44;101032.28;;;7.53;85.22
70544;BME280;58097;48.364;-1.224;2023-02-01T02:15:13;101032.03;;;7.56;84.98
70544;BME280;58097;48.364;-1.224;2023-02-01T02:17:56;101042.16;;;7.55;84.96
70544;BME280;58097;48.364;-1.224;2023-02-01T02:33:53;101059.00;;;7.51;84.45
70544;BME280;58097;48.364;-1.224;2023-02-01T02:39:18;101067.16;;;7.52;84.42
70544;BME280;58097;48.364;-1.224;2023-02-01T02:44:49;101071.88;;;7.50;84.35
70544;BME280;58097;48.364;-1.224;2023-02-01T02:51:23;101075.41;;;7.52;84.41
70544;BME280;58097;48.364;-1.224;2023-02-01T02:53:57;101073.31;;;7.56;83.81
70544;BME280;58097;48.364;-1.224;2023-02-01T02:56:43;101067.94;;;7.54;84.28
70544;BME280;58097;48.364;-1.224;2023-02-01T02:59:28;101064.41;;;7.52;84.25
70544;BME280;58097;48.364;-1.224;2023-02-01T03:02:14;101066.16;;;7.53;84.08
70544;BME280;58097;48.364;-1.224;2023-02-01T03:04:58;101062.41;;;7.54;84.49
70544;BME280;58097;48.364;-1.224;2023-02-01T03:08:02;101044.81;;;7.57;84.51
70544;BME280;58097;48.364;-1.224;2023-02-01T03:11:04;101044.81;;;7.57;84.54
70544;BME280;58097;48.364;-1.224;2023-02-01T03:14:06;101042.94;;;7.57;84.80
70544;BME280;58097;48.364;-1.224;2023-02-01T03:16:43;101041.81;;;7.60;84.46
70544;BME280;58097;48.364;-1.224;2023-02-01T03:19:27;101042.69;;;7.60;84.25
70544;BME280;58097;48.364;-1.224;2023-02-01T03:22:11;101046.31;;;7.61;84.14
70544;BME280;58097;48.364;-1.224;2023-02-01T03:24:41;101035.56;;;7.58;83.83
70544;BME280;58097;48.364;-1.224;2023-02-01T03:30:08;101044.81;;;7.57;84.17
70544;BME280;58097;48.364;-1.224;2023-02-01T03:32:36;101036.66;;;7.55;83.87
70544;BME280;58097;48.364;-1.224;2023-02-01T03:35:45;101047.66;;;7.55;83.98
70544;BME280;58097;48.364;-1.224;2023-02-01T03:46:31;101050.41;;;7.55;84.32
70544;BME280;58097;48.364;-1.224;2023-02-01T03:49:01;101043.16;;;7.54;84.24
70544;BME280;58097;48.364;-1.224;2023-02-01T03:51:29;101043.16;;;7.54;84.22
70544;BME280;58097;48.364;-1.224;2023-02-01T03:53:56;101040.41;;;7.54;84.23
70544;BME280;58097;48.364;-1.224;2023-02-01T03:56:24;101043.16;;;7.54;84.25
70544;BME280;58097;48.364;-1.224;2023-02-01T03:58:50;101034.03;;;7.54;84.33
70544;BME280;58097;48.364;-1.224;2023-02-01T04:01:26;101033.16;;;7.53;84.46
70544;BME280;58097;48.364;-1.224;2023-02-01T04:03:52;101024.97;;;7.52;84.19
70544;BME280;58097;48.364;-1.224;2023-02-01T04:06:18;101031.41;;;7.52;84.36
70544;BME280;58097;48.364;-1.224;2023-02-01T04:08:43;101036.22;;;7.49;83.92
70544;BME280;58097;48.364;-1.224;2023-02-01T04:11:08;101048.09;;;7.49;84.13
70544;BME280;58097;48.364;-1.224;2023-02-01T04:13:34;101045.47;;;7.47;83.80
70544;BME280;58097;48.364;-1.224;2023-02-01T04:16:00;101047.34;;;7.47;83.93
70544;BME280;58097;48.364;-1.224;2023-02-01T04:18:25;101046.34;;;7.48;84.20
70544;BME280;58097;48.364;-1.224;2023-02-01T04:20:50;101044.69;;;7.45;83.43
70544;BME280;58097;48.364;-1.224;2023-02-01T04:23:16;101051.19;;;7.44;83.37
70544;BME280;58097;48.364;-1.224;2023-02-01T04:25:41;101045.81;;;7.43;83.66
70544;BME280;58097;48.364;-1.224;2023-02-01T04:28:06;101045.69;;;7.44;83.72
70544;BME280;58097;48.364;-1.224;2023-02-01T04:30:32;101050.09;;;7.47;83.82
70544;BME280;58097;48.364;-1.224;2023-02-01T04:32:58;101057.34;;;7.48;83.48
70544;BME280;58097;48.364;-1.224;2023-02-01T04:35:23;101050.84;;;7.49;83.68
70544;BME280;58097;48.364;-1.224;2023-02-01T04:37:48;101043.59;;;7.48;84.09
70544;BME280;58097;48.364;-1.224;2023-02-01T04:40:14;101052.72;;;7.49;83.97
70544;BME280;58097;48.364;-1.224;2023-02-01T04:42:39;101047.09;;;7.50;83.78
70544;BME280;58097;48.364;-1.224;2023-02-01T04:45:05;101058.47;;;7.45;83.23
70544;BME280;58097;48.364;-1.224;2023-02-01T04:47:30;101047.47;;;7.45;83.65
70544;BME280;58097;48.364;-1.224;2023-02-01T04:49:56;101054.06;;;7.43;82.85
70544;BME280;58097;48.364;-1.224;2023-02-01T04:52:21;101056.81;;;7.43;83.24
70544;BME280;58097;48.364;-1.224;2023-02-01T04:54:46;101064.06;;;7.44;83.44
70544;BME280;58097;48.364;-1.224;2023-02-01T04:57:12;101068.59;;;7.45;83.41
70544;BME280;58097;48.364;-1.224;2023-02-01T04:59:39;101063.31;;;7.42;83.26
70544;BME280;58097;48.364;-1.224;2023-02-01T05:02:04;101062.31;;;7.43;83.32
70544;BME280;58097;48.364;-1.224;2023-02-01T05:04:29;101063.44;;;7.40;82.57
70544;BME280;58097;48.364;-1.224;2023-02-01T05:06:55;101058.91;;;7.39;82.91
70544;BME280;58097;48.364;-1.224;2023-02-01T05:09:20;101064.19;;;7.42;82.97
70544;BME280;58097;48.364;-1.224;2023-02-01T05:11:47;101066.19;;;7.40;82.44
70544;BME280;58097;48.364;-1.224;2023-02-01T05:14:30;101067.81;;;7.43;82.34
70544;BME280;58097;48.364;-1.224;2023-02-01T05:16:56;101065.94;;;7.43;82.54
70544;BME280;58097;48.364;-1.224;2023-02-01T05:19:21;101066.72;;;7.45;82.68
70544;BME280;58097;48.364;-1.224;2023-02-01T05:21:46;101060.22;;;7.46;82.68
70544;BME280;58097;48.364;-1.224;2023-02-01T05:24:12;101068.34;;;7.48;82.95
70544;BME280;58097;48.364;-1.224;2023-02-01T05:26:48;101059.44;;;7.44;82.72
70544;BME280;58097;48.364;-1.224;2023-02-01T05:29:14;101051.97;;;7.46;82.95
70544;BME280;58097;48.364;-1.224;2023-02-01T05:31:40;101061.09;;;7.47;83.14
70544;BME280;58097;48.364;-1.224;2023-02-01T05:34:06;101067.47;;;7.47;82.75
70544;BME280;58097;48.364;-1.224;2023-02-01T05:36:32;101063.72;;;7.49;82.88
70544;BME280;58097;48.364;-1.224;2023-02-01T05:38:57;101058.22;;;7.49;83.15
70544;BME280;58097;48.364;-1.224;2023-02-01T05:41:23;101056.47;;;7.47;82.40
70544;BME280;58097;48.364;-1.224;2023-02-01T05:43:48;101059.09;;;7.49;82.70
70544;BME280;58097;48.364;-1.224;2023-02-01T05:46:14;101054.59;;;7.48;82.71
70544;BME280;58097;48.364;-1.224;2023-02-01T05:48:40;101058.34;;;7.47;82.41
70544;BME280;58097;48.364;-1.224;2023-02-01T05:51:06;101054.81;;;7.45;82.48
70544;BME280;58097;48.364;-1.224;2023-02-01T05:53:31;101072.22;;;7.45;82.76
70544;BME280;58097;48.364;-1.224;2023-02-01T05:55:57;101074.09;;;7.45;82.53
70544;BME280;58097;48.364;-1.224;2023-02-01T05:58:22;101084.09;;;7.46;82.39
70544;BME280;58097;48.364;-1.224;2023-02-01T06:00:47;101087.84;;;7.45;82.74
70544;BME280;58097;48.364;-1.224;2023-02-01T06:03:13;101090.69;;;7.43;82.42
70544;BME280;58097;48.364;-1.224;2023-02-01T06:05:38;101090.81;;;7.42;82.45
70544;BME280;58097;48.364;-1.224;2023-02-01T06:08:04;101079.59;;;7.45;82.22
70544;BME280;58097;48.364;-1.224;2023-02-01T06:10:29;101094.31;;;7.44;82.36
70544;BME280;58097;48.364;-1.224;2023-02-01T06:12:54;101104.44;;;7.43;82.43
70544;BME280;58097;48.364;-1.224;2023-02-01T06:15:20;101102.81;;;7.41;82.51
70544;BME280;58097;48.364;-1.224;2023-02-01T06:17:46;101103.56;;;7.43;82.72
70544;BME280;58097;48.364;-1.224;2023-02-01T06:20:13;101098.94;;;7.43;82.64
70544;BME280;58097;48.364;-1.224;2023-02-01T06:22:39;101090.81;;;7.42;82.46
70544;BME280;58097;48.364;-1.224;2023-02-01T06:25:06;101106.44;;;7.41;82.30
70544;BME280;58097;48.364;-1.224;2023-02-01T06:27:32;101095.31;;;7.43;82.24
70544;BME280;58097;48.364;-1.224;2023-02-01T06:29:57;101098.19;;;7.41;81.69
70544;BME280;58097;48.364;-1.224;2023-02-01T06:32:23;101091.56;;;7.44;82.19
70544;BME280;58097;48.364;-1.224;2023-02-01T06:34:49;101092.34;;;7.46;82.26
70544;BME280;58097;48.364;-1.224;2023-02-01T06:37:14;101077.81;;;7.44;81.99
70544;BME280;58097;48.364;-1.224;2023-02-01T06:39:39;101085.19;;;7.43;81.38
70544;BME280;58097;48.364;-1.224;2023-02-01T06:42:05;101094.97;;;7.47;81.85
70544;BME280;58097;48.364;-1.224;2023-02-01T06:44:30;101088.59;;;7.47;81.59
70544;BME280;58097;48.364;-1.224;2023-02-01T06:46:56;101090.34;;;7.48;81.52
70544;BME280;58097;48.364;-1.224;2023-02-01T06:49:21;101092.13;;;7.49;81.86
70544;BME280;58097;48.364;-1.224;2023-02-01T06:51:47;101084.84;;;7.48;81.82
70544;BME280;58097;48.364;-1.224;2023-02-01T06:54:13;101097.72;;;7.47;82.00
70544;BME280;58097;48.364;-1.224;2023-02-01T06:56:38;101100.47;;;7.47;81.88
70544;BME280;58097;48.364;-1.224;2023-02-01T06:59:04;101099.47;;;7.49;82.25
70544;BME280;58097;48.364;-1.224;2023-02-01T07:01:30;101101.34;;;7.48;82.13
70544;BME280;58097;48.364;-1.224;2023-02-01T07:03:56;101098.50;;;7.50;81.84
70544;BME280;58097;48.364;-1.224;2023-02-01T07:06:22;101113.13;;;7.50;82.24
70544;BME280;58097;48.364;-1.224;2023-02-01T07:08:48;101121.38;;;7.50;82.02
70544;BME280;58097;48.364;-1.224;2023-02-01T07:11:14;101126.00;;;7.50;81.94
70544;BME280;58097;48.364;-1.224;2023-02-01T07:13:40;101130.63;;;7.49;82.26
70544;BME280;58097;48.364;-1.224;2023-02-01T07:16:09;101122.38;;;7.49;82.33
70544;BME280;58097;48.364;-1.224;2023-02-01T07:18:35;101123.38;;;7.48;82.32
70544;BME280;58097;48.364;-1.224;2023-02-01T07:21:00;101117.84;;;7.48;82.13
70544;BME280;58097;48.364;-1.224;2023-02-01T07:23:27;101123.38;;;7.48;82.30
70544;BME280;58097;48.364;-1.224;2023-02-01T07:25:57;101114.34;;;7.46;82.19
70544;BME280;58097;48.364;-1.224;2023-02-01T07:28:24;101109.84;;;7.45;82.28
70544;BME280;58097;48.364;-1.224;2023-02-01T07:30:49;101111.81;;;7.43;82.24
70544;BME280;58097;48.364;-1.224;2023-02-01T07:33:22;101107.31;;;7.42;82.36
70544;BME280;58097;48.364;-1.224;2023-02-01T07:35:48;101104.56;;;7.42;82.62
70544;BME280;58097;48.364;-1.224;2023-02-01T07:38:14;101112.59;;;7.45;82.51
70544;BME280;58097;48.364;-1.224;2023-02-01T07:40:40;101106.22;;;7.44;82.50
70544;BME280;58097;48.364;-1.224;2023-02-01T07:43:06;101098.94;;;7.43;82.79
70544;BME280;58097;48.364;-1.224;2023-02-01T07:45:33;101106.31;;;7.43;82.48
70544;BME280;58097;48.364;-1.224;2023-02-01T07:47:58;101113.81;;;7.41;82.50
70544;BME280;58097;48.364;-1.224;2023-02-01T07:50:24;101104.78;;;7.39;82.75
70544;BME280;58097;48.364;-1.224;2023-02-01T07:52:49;101096.44;;;7.40;82.70
70544;BME280;58097;48.364;-1.224;2023-02-01T07:55:15;101100.28;;;7.38;82.61
70544;BME280;58097;48.364;-1.224;2023-02-01T07:57:40;101094.78;;;7.38;82.67
70544;BME280;58097;48.364;-1.224;2023-02-01T08:00:07;101099.41;;;7.37;82.36
70544;BME280;58097;48.364;-1.224;2023-02-01T08:02:51;101094.78;;;7.38;82.57
70544;BME280;58097;48.364;-1.224;2023-02-01T08:05:16;101102.81;;;7.41;82.67
70544;BME280;58097;48.364;-1.224;2023-02-01T08:07:42;101107.97;;;7.45;82.70
70544;BME280;58097;48.364;-1.224;2023-02-01T08:10:07;101111.47;;;7.47;82.75
70544;BME280;58097;48.364;-1.224;2023-02-01T08:12:36;101106.75;;;7.50;82.43
70544;BME280;58097;48.364;-1.224;2023-02-01T08:15:03;101102.22;;;7.49;82.68
70544;BME280;58097;48.364;-1.224;2023-02-01T08:17:29;101104.00;;;7.50;82.53
70544;BME280;58097;48.364;-1.224;2023-02-01T08:19:54;101106.84;;;7.48;82.50
70544;BME280;58097;48.364;-1.224;2023-02-01T08:22:20;101113.34;;;7.47;82.38
70544;BME280;58097;48.364;-1.224;2023-02-01T08:24:48;101108.50;;;7.51;82.29
70544;BME280;58097;48.364;-1.224;2023-02-01T08:27:13;101119.63;;;7.49;82.37
70544;BME280;58097;48.364;-1.224;2023-02-01T08:29:39;101123.06;;;7.53;82.63
70544;BME280;58097;48.364;-1.224;2023-02-01T08:32:04;101129.44;;;7.53;82.71
70544;BME280;58097;48.364;-1.224;2023-02-01T08:34:30;101126.47;;;7.56;82.80
70544;BME280;58097;48.364;-1.224;2023-02-01T08:36:55;101128.00;;;7.60;82.80
70544;BME280;58097;48.364;-1.224;2023-02-01T08:39:24;101136.25;;;7.60;82.88
70544;BME280;58097;48.364;-1.224;2023-02-01T08:41:50;101127.88;;;7.62;82.68
70544;BME280;58097;48.364;-1.224;2023-02-01T08:44:35;101127.75;;;7.63;82.70
70544;BME280;58097;48.364;-1.224;2023-02-01T08:47:02;101132.38;;;7.63;82.84
70544;BME280;58097;48.364;-1.224;2023-02-01T08:49:27;101134.38;;;7.61;82.82
70544;BME280;58097;48.364;-1.224;2023-02-01T08:51:53;101142.63;;;7.61;82.81
70544;BME280;58097;48.364;-1.224;2023-02-01T08:54:18;101143.63;;;7.60;82.67
70544;BME280;58097;48.364;-1.224;2023-02-01T08:56:43;101143.50;;;7.61;82.73
70544;BME280;58097;48.364;-1.224;2023-02-01T08:59:08;101154.38;;;7.63;82.68
70544;BME280;58097;48.364;-1.224;2023-02-01T09:01:34;101145.16;;;7.64;82.90
70544;BME280;58097;48.364;-1.224;2023-02-01T09:03:59;101153.41;;;7.64;83.09
70544;BME280;58097;48.364;-1.224;2023-02-01T09:06:25;101158.69;;;7.67;82.96
70544;BME280;58097;48.364;-1.224;2023-02-01T09:08:51;101164.19;;;7.67;83.16
70544;BME280;58097;48.364;-1.224;2023-02-01T09:11:17;101171.44;;;7.68;82.87
70544;BME280;58097;48.364;-1.224;2023-02-01T09:13:45;101179.34;;;7.72;83.04
70544;BME280;58097;48.364;-1.224;2023-02-01T09:16:10;101177.59;;;7.71;82.88
70544;BME280;58097;48.364;-1.224;2023-02-01T09:18:36;101180.22;;;7.73;82.95
70544;BME280;58097;48.364;-1.224;2023-02-01T09:21:07;101185.84;;;7.71;83.01
70544;BME280;58097;48.364;-1.224;2023-02-01T09:23:33;101176.72;;;7.71;83.00
70544;BME280;58097;48.364;-1.224;2023-02-01T09:26:03;101185.84;;;7.71;82.97
70544;BME280;58097;48.364;-1.224;2023-02-01T09:28:28;101194.00;;;7.73;82.93
70544;BME280;58097;48.364;-1.224;2023-02-01T09:30:58;101184.97;;;7.71;83.17
70544;BME280;58097;48.364;-1.224;2023-02-01T09:33:26;101193.75;;;7.76;83.29
70544;BME280;58097;48.364;-1.224;2023-02-01T09:35:59;101187.03;;;7.80;83.24
70544;BME280;58097;48.364;-1.224;2023-02-01T09:38:26;101184.28;;;7.80;83.04
70544;BME280;58097;48.364;-1.224;2023-02-01T09:40:53;101182.09;;;7.85;83.03
70544;BME280;58097;48.364;-1.224;2023-02-01T09:46:26;101188.69;;;7.95;83.08
70544;BME280;58097;48.364;-1.224;2023-02-01T09:48:55;101188.22;;;8.01;83.08
70544;BME280;58097;48.364;-1.224;2023-02-01T09:51:36;101198.00;;;8.05;82.87
70544;BME280;58097;48.364;-1.224;2023-02-01T09:54:08;101190.63;;;8.06;82.91
70544;BME280;58097;48.364;-1.224;2023-02-01T10:01:54;101196.09;;;8.19;83.18
70544;BME280;58097;48.364;-1.224;2023-02-01T10:04:19;101187.84;;;8.19;82.42
70544;BME280;58097;48.364;-1.224;2023-02-01T10:17:45;101168.09;;;8.25;82.44
70544;BME280;58097;48.364;-1.224;2023-02-01T10:27:59;101183.63;;;8.26;82.50
70544;BME280;58097;48.364;-1.224;2023-02-01T10:30:39;101182.50;;;8.28;82.82
70544;BME280;58097;48.364;-1.224;2023-02-01T10:35:40;101182.16;;;8.33;81.83
70544;BME280;58097;48.364;-1.224;2023-02-01T10:38:16;101189.47;;;8.34;82.35
70544;BME280;58097;48.364;-1.224;2023-02-01T10:40:43;101190.09;;;8.37;82.16
70544;BME280;58097;48.364;-1.224;2023-02-01T10:43:09;101193.66;;;8.40;82.03
70544;BME280;58097;48.364;-1.224;2023-02-01T10:45:43;101207.63;;;8.36;81.89
70544;BME280;58097;48.364;-1.224;2023-02-01T10:48:08;101210.63;;;8.33;82.11
70544;BME280;58097;48.364;-1.224;2023-02-01T10:53:39;101213.03;;;8.38;82.10
70544;BME280;58097;48.364;-1.224;2023-02-01T10:56:10;101227.91;;;8.35;81.46
70544;BME280;58097;48.364;-1.224;2023-02-01T10:58:43;101228.13;;;8.32;80.98
70544;BME280;58097;48.364;-1.224;2023-02-01T11:01:16;101231.88;;;8.31;81.82
70544;BME280;58097;48.364;-1.224;2023-02-01T11:03:54;101239.94;;;8.34;81.91
70544;BME280;58097;48.364;-1.224;2023-02-01T11:08:54;101233.97;;;8.41;81.16
70544;BME280;58097;48.364;-1.224;2023-02-01T11:11:21;101232.75;;;8.45;81.56
70544;BME280;58097;48.364;-1.224;2023-02-01T11:13:56;101234.41;;;8.47;81.86
70544;BME280;58097;48.364;-1.224;2023-02-01T11:16:28;101242.53;;;8.49;81.45
70544;BME280;58097;48.364;-1.224;2023-02-01T11:18:54;101237.69;;;8.52;81.76
70544;BME280;58097;48.364;-1.224;2023-02-01T11:21:21;101238.31;;;8.56;81.83
70544;BME280;58097;48.364;-1.224;2023-02-01T11:23:47;101230.41;;;8.51;80.81
70544;BME280;58097;48.364;-1.224;2023-02-01T11:26:35;101218.03;;;8.57;81.44
70544;BME280;58097;48.364;-1.224;2023-02-01T11:29:05;101218.69;;;8.60;81.29
70544;BME280;58097;48.364;-1.224;2023-02-01T11:31:34;101211.59;;;8.69;82.02
70544;BME280;58097;48.364;-1.224;2023-02-01T11:34:14;101209.25;;;8.76;81.50
70544;BME280;58097;48.364;-1.224;2023-02-01T11:36:41;101195.63;;;8.85;81.57
70544;BME280;58097;48.364;-1.224;2023-02-01T11:39:20;101188.94;;;9.00;81.13
70544;BME280;58097;48.364;-1.224;2023-02-01T11:49:47;101184.75;;;9.52;80.08
70544;BME280;58097;48.364;-1.224;2023-02-01T11:55:33;101185.78;;;9.74;80.90
70544;BME280;58097;48.364;-1.224;2023-02-01T12:05:50;101191.81;;;9.68;78.44
70544;BME280;58097;48.364;-1.224;2023-02-01T12:08:48;101186.66;;;9.63;77.29
70544;BME280;58097;48.364;-1.224;2023-02-01T12:14:30;101171.25;;;9.60;77.17
70544;BME280;58097;48.364;-1.224;2023-02-01T12:25:30;101183.41;;;9.58;76.93
70544;BME280;58097;48.364;-1.224;2023-02-01T12:43:42;101172.09;;;9.39;77.35
70544;BME280;58097;48.364;-1.224;2023-02-01T12:46:15;101161.19;;;9.37;77.14
70544;BME280;58097;48.364;-1.224;2023-02-01T12:48:54;101161.31;;;9.36;77.35
70544;BME280;58097;48.364;-1.224;2023-02-01T12:51:41;101162.19;;;9.36;77.25
70544;BME280;58097;48.364;-1.224;2023-02-01T12:54:17;101154.66;;;9.38;77.19
70544;BME280;58097;48.364;-1.224;2023-02-01T12:56:57;101152.66;;;9.40;77.62
70544;BME280;58097;48.364;-1.224;2023-02-01T13:01:56;101156.41;;;9.39;76.84
70544;BME280;58097;48.364;-1.224;2023-02-01T13:04:30;101151.25;;;9.35;76.20
70544;BME280;58097;48.364;-1.224;2023-02-01T13:07:14;101148.75;;;9.43;77.60
70544;BME280;58097;48.364;-1.224;2023-02-01T13:09:52;101155.03;;;9.45;78.21
70544;BME280;58097;48.364;-1.224;2023-02-01T13:12:44;101154.16;;;9.44;77.79
70544;BME280;58097;48.364;-1.224;2023-02-01T13:15:44;101145.00;;;9.44;76.80
70544;BME280;58097;48.364;-1.224;2023-02-01T13:18:18;101147.88;;;9.42;77.12
70544;BME280;58097;48.364;-1.224;2023-02-01T13:25:51;101146.75;;;9.34;76.23
70544;BME280;58097;48.364;-1.224;2023-02-01T13:28:19;101136.59;;;9.34;76.23
70544;BME280;58097;48.364;-1.224;2023-02-01T13:41:55;101134.84;;;9.33;75.72
70544;BME280;58097;48.364;-1.224;2023-02-01T13:44:30;101135.84;;;9.32;76.82
70544;BME280;58097;48.364;-1.224;2023-02-01T13:46:59;101140.59;;;9.30;76.16
70544;BME280;58097;48.364;-1.224;2023-02-01T13:49:28;101127.81;;;9.29;76.27
70544;BME280;58097;48.364;-1.224;2023-02-01T13:51:57;101136.84;;;9.31;76.31
70544;BME280;58097;48.364;-1.224;2023-02-01T13:54:30;101134.72;;;9.35;76.37
70544;BME280;58097;48.364;-1.224;2023-02-01T13:56:58;101133.84;;;9.34;76.68
70544;BME280;58097;48.364;-1.224;2023-02-01T14:10:53;101119.78;;;9.37;75.88
70544;BME280;58097;48.364;-1.224;2023-02-01T14:13:37;101123.56;;;9.36;75.25
70544;BME280;58097;48.364;-1.224;2023-02-01T14:28:53;101113.28;;;9.38;73.27
70544;BME280;58097;48.364;-1.224;2023-02-01T14:33:56;101110.63;;;9.37;73.51
70544;BME280;58097;48.364;-1.224;2023-02-01T14:36:23;101113.41;;;9.37;74.22
70544;BME280;58097;48.364;-1.224;2023-02-01T14:38:50;101117.03;;;9.37;74.33
70544;BME280;58097;48.364;-1.224;2023-02-01T14:47:06;101117.78;;;9.28;73.06
70544;BME280;58097;48.364;-1.224;2023-02-01T14:49:34;101122.56;;;9.26;73.19
70544;BME280;58097;48.364;-1.224;2023-02-01T14:52:06;101116.25;;;9.24;73.83
70544;BME280;58097;48.364;-1.224;2023-02-01T14:54:35;101112.88;;;9.20;73.45
70544;BME280;58097;48.364;-1.224;2023-02-01T14:57:01;101117.88;;;9.15;73.69
70544;BME280;58097;48.364;-1.224;2023-02-01T14:59:28;101124.63;;;9.11;72.58
70544;BME280;58097;48.364;-1.224;2023-02-01T15:02:00;101117.25;;;9.12;73.28
70544;BME280;58097;48.364;-1.224;2023-02-01T15:04:26;101129.28;;;9.11;73.40
70544;BME280;58097;48.364;-1.224;2023-02-01T15:09:31;101133.53;;;9.15;74.23
70544;BME280;58097;48.364;-1.224;2023-02-01T15:14:33;101130.66;;;9.16;74.12
70544;BME280;58097;48.364;-1.224;2023-02-01T15:16:59;101134.03;;;9.20;74.65
70544;BME280;58097;48.364;-1.224;2023-02-01T15:19:27;101132.53;;;9.16;74.19
70544;BME280;58097;48.364;-1.224;2023-02-01T15:21:55;101128.91;;;9.15;74.78
70544;BME280;58097;48.364;-1.224;2023-02-01T15:24:26;101122.38;;;9.16;75.00
70544;BME280;58097;48.364;-1.224;2023-02-01T15:26:53;101129.66;;;9.17;74.53
70544;BME280;58097;48.364;-1.224;2023-02-01T15:29:20;101132.53;;;9.16;75.22
70544;BME280;58097;48.364;-1.224;2023-02-01T15:31:49;101130.66;;;9.16;74.99
70544;BME280;58097;48.364;-1.224;2023-02-01T15:34:15;101129.03;;;9.14;74.25
70544;BME280;58097;48.364;-1.224;2023-02-01T15:36:41;101134.53;;;9.14;75.28
70544;BME280;58097;48.364;-1.224;2023-02-01T15:39:23;101132.78;;;9.13;75.15
70544;BME280;58097;48.364;-1.224;2023-02-01T15:42:11;101131.78;;;9.14;74.55
70544;BME280;58097;48.364;-1.224;2023-02-01T15:44:42;101137.44;;;9.12;74.95
70544;BME280;58097;48.364;-1.224;2023-02-01T15:47:30;101141.19;;;9.11;74.72
70544;BME280;58097;48.364;-1.224;2023-02-01T15:49:59;101141.19;;;9.11;75.63
70544;BME280;58097;48.364;-1.224;2023-02-01T15:52:37;101145.81;;;9.11;75.58
70544;BME280;58097;48.364;-1.224;2023-02-01T15:55:07;101156.22;;;9.07;75.67
70544;BME280;58097;48.364;-1.224;2023-02-01T15:57:38;101148.97;;;9.06;75.45
70544;BME280;58097;48.364;-1.224;2023-02-01T16:00:21;101149.06;;;9.05;75.23